sensor_id;sensor_type;location;lat;lon;timestamp;P1;durP1;ratioP1;P2;durP2;ratioP2
74267;SDS011;62638;51.362;12.472;2023-03-07T00:01:13;12.93;;;5.03;;
74267;SDS011;62638;51.362;12.472;2023-03-07T00:03:45;18.95;;;7.38;;
74267;SDS011;62638;51.362;12.472;2023-03-07T00:06:11;10.87;;;4.03;;
74267;SDS011;62638;51.362;12.472;2023-03-07T00:08:37;11.80;;;4.95;;
74267;SDS011;62638;51.362;12.472;2023-03-07T00:11:03;11.80;;;5.75;;
74267;SDS011;62638;51.362;12.472;2023-03-07T00:13:31;13.88;;;5.05;;
74267;SDS011;62638;51.362;12.472;2023-03-07T00:16:01;8.07;;;4.20;;
74267;SDS011;62638;51.362;12.472;2023-03-07T00:18:26;7.82;;;4.70;;
74267;SDS011;62638;51.362;12.472;2023-03-07T00:21:01;11.30;;;5.60;;
74267;SDS011;62638;51.362;12.472;2023-03-07T00:23:30;13.88;;;5.53;;
74267;SDS011;62638;51.362;12.472;2023-03-07T00:26:02;16.83;;;4.68;;
74267;SDS011;62638;51.362;12.472;2023-03-07T00:28:29;8.93;;;3.70;;
74267;SDS011;62638;51.362;12.472;2023-03-07T00:30:54;6.90;;;4.13;;
74267;SDS011;62638;51.362;12.472;2023-03-07T00:33:24;17.67;;;5.68;;
74267;SDS011;62638;51.362;12.472;2023-03-07T00:35:53;11.52;;;3.40;;
74267;SDS011;62638;51.362;12.472;2023-03-07T00:38:22;14.07;;;6.28;;
74267;SDS011;62638;51.362;12.472;2023-03-07T00:40:55;14.18;;;5.45;;
74267;SDS011;62638;51.362;12.472;2023-03-07T00:43:26;8.73;;;4.15;;
74267;SDS011;62638;51.362;12.472;2023-03-07T00:45:52;10.20;;;4.28;;
74267;SDS011;62638;51.362;12.472;2023-03-07T00:48:20;10.50;;;3.88;;
74267;SDS011;62638;51.362;12.472;2023-03-07T00:50:45;16.95;;;5.47;;
74267;SDS011;62638;51.362;12.472;2023-03-07T00:53:11;10.57;;;4.18;;
74267;SDS011;62638;51.362;12.472;2023-03-07T00:55:36;6.93;;;3.57;;
74267;SDS011;62638;51.362;12.472;2023-03-07T00:58:01;5.87;;;3.97;;
74267;SDS011;62638;51.362;12.472;2023-03-07T01:00:27;5.57;;;3.07;;
74267;SDS011;62638;51.362;12.472;2023-03-07T01:02:52;11.30;;;4.43;;
74267;SDS011;62638;51.362;12.472;2023-03-07T01:05:17;12.47;;;4.97;;
74267;SDS011;62638;51.362;12.472;2023-03-07T01:07:42;11.20;;;4.63;;
74267;SDS011;62638;51.362;12.472;2023-03-07T01:10:08;7.63;;;4.63;;
74267;SDS011;62638;51.362;12.472;2023-03-07T01:12:33;11.35;;;4.93;;
74267;SDS011;62638;51.362;12.472;2023-03-07T01:14:59;8.95;;;4.78;;
74267;SDS011;62638;51.362;12.472;2023-03-07T01:17:24;10.98;;;4.88;;
74267;SDS011;62638;51.362;12.472;2023-03-07T01:19:49;18.03;;;5.80;;
74267;SDS011;62638;51.362;12.472;2023-03-07T01:22:15;9.20;;;4.80;;
74267;SDS011;62638;51.362;12.472;2023-03-07T01:24:40;10.20;;;3.53;;
74267;SDS011;62638;51.362;12.472;2023-03-07T01:27:05;6.90;;;4.20;;
74267;SDS011;62638;51.362;12.472;2023-03-07T01:29:30;17.63;;;4.63;;
74267;SDS011;62638;51.362;12.472;2023-03-07T01:31:56;9.73;;;4.50;;
74267;SDS011;62638;51.362;12.472;2023-03-07T01:34:21;12.03;;;5.87;;
74267;SDS011;62638;51.362;12.472;2023-03-07T01:36:47;17.73;;;5.55;;
74267;SDS011;62638;51.362;12.472;2023-03-07T01:39:13;15.83;;;4.53;;
74267;SDS011;62638;51.362;12.472;2023-03-07T01:41:42;12.93;;;4.35;;
74267;SDS011;62638;51.362;12.472;2023-03-07T01:44:16;10.13;;;4.97;;
74267;SDS011;62638;51.362;12.472;2023-03-07T01:46:46;9.20;;;3.95;;
74267;SDS011;62638;51.362;12.472;2023-03-07T01:49:30;10.40;;;3.78;;
74267;SDS011;62638;51.362;12.472;2023-03-07T01:52:06;11.05;;;5.05;;
74267;SDS011;62638;51.362;12.472;2023-03-07T01:54:33;7.70;;;3.80;;
74267;SDS011;62638;51.362;12.472;2023-03-07T01:57:02;9.52;;;4.22;;
74267;SDS011;62638;51.362;12.472;2023-03-07T01:59:29;9.57;;;3.92;;
74267;SDS011;62638;51.362;12.472;2023-03-07T02:01:59;12.75;;;4.35;;
74267;SDS011;62638;51.362;12.472;2023-03-07T02:04:30;5.97;;;3.17;;
74267;SDS011;62638;51.362;12.472;2023-03-07T02:07:00;11.15;;;5.10;;
74267;SDS011;62638;51.362;12.472;2023-03-07T02:09:27;7.80;;;4.63;;
74267;SDS011;62638;51.362;12.472;2023-03-07T02:11:55;13.98;;;6.15;;
74267;SDS011;62638;51.362;12.472;2023-03-07T02:14:21;7.57;;;4.03;;
74267;SDS011;62638;51.362;12.472;2023-03-07T02:16:46;12.43;;;5.88;;
74267;SDS011;62638;51.362;12.472;2023-03-07T02:19:21;14.20;;;5.80;;
74267;SDS011;62638;51.362;12.472;2023-03-07T02:22:12;6.18;;;3.33;;
74267;SDS011;62638;51.362;12.472;2023-03-07T02:24:44;11.63;;;5.28;;
74267;SDS011;62638;51.362;12.472;2023-03-07T02:27:15;10.38;;;4.50;;
74267;SDS011;62638;51.362;12.472;2023-03-07T02:29:40;8.82;;;4.45;;
74267;SDS011;62638;51.362;12.472;2023-03-07T02:32:06;12.07;;;4.28;;
74267;SDS011;62638;51.362;12.472;2023-03-07T02:34:32;8.32;;;3.70;;
74267;SDS011;62638;51.362;12.472;2023-03-07T02:36:58;11.13;;;3.75;;
74267;SDS011;62638;51.362;12.472;2023-03-07T02:39:29;15.65;;;5.32;;
74267;SDS011;62638;51.362;12.472;2023-03-07T02:41:55;7.22;;;4.60;;
74267;SDS011;62638;51.362;12.472;2023-03-07T02:44:24;7.85;;;5.40;;
74267;SDS011;62638;51.362;12.472;2023-03-07T02:46:49;10.32;;;5.45;;
74267;SDS011;62638;51.362;12.472;2023-03-07T02:49:15;15.43;;;6.40;;
74267;SDS011;62638;51.362;12.472;2023-03-07T02:51:41;9.98;;;4.63;;
74267;SDS011;62638;51.362;12.472;2023-03-07T02:54:07;10.10;;;4.35;;
74267;SDS011;62638;51.362;12.472;2023-03-07T02:56:32;10.48;;;4.88;;
74267;SDS011;62638;51.362;12.472;2023-03-07T02:58:58;8.18;;;5.03;;
74267;SDS011;62638;51.362;12.472;2023-03-07T03:01:23;11.17;;;6.20;;
74267;SDS011;62638;51.362;12.472;2023-03-07T03:03:48;12.07;;;4.47;;
74267;SDS011;62638;51.362;12.472;2023-03-07T03:06:14;6.78;;;3.45;;
74267;SDS011;62638;51.362;12.472;2023-03-07T03:08:39;12.40;;;6.23;;
74267;SDS011;62638;51.362;12.472;2023-03-07T03:11:04;12.70;;;4.93;;
74267;SDS011;62638;51.362;12.472;2023-03-07T03:13:30;13.87;;;4.70;;
74267;SDS011;62638;51.362;12.472;2023-03-07T03:15:55;12.07;;;5.47;;
74267;SDS011;62638;51.362;12.472;2023-03-07T03:18:22;10.23;;;4.50;;
74267;SDS011;62638;51.362;12.472;2023-03-07T03:20:49;14.88;;;4.63;;
74267;SDS011;62638;51.362;12.472;2023-03-07T03:23:15;5.25;;;3.10;;
74267;SDS011;62638;51.362;12.472;2023-03-07T03:25:40;10.30;;;4.63;;
74267;SDS011;62638;51.362;12.472;2023-03-07T03:28:05;12.77;;;5.20;;
74267;SDS011;62638;51.362;12.472;2023-03-07T03:30:31;8.60;;;3.67;;
74267;SDS011;62638;51.362;12.472;2023-03-07T03:35:24;6.60;;;2.50;;
74267;SDS011;62638;51.362;12.472;2023-03-07T03:37:50;10.47;;;3.13;;
74267;SDS011;62638;51.362;12.472;2023-03-07T03:40:15;7.20;;;3.77;;
74267;SDS011;62638;51.362;12.472;2023-03-07T03:42:41;8.85;;;4.07;;
74267;SDS011;62638;51.362;12.472;2023-03-07T03:45:08;10.15;;;4.88;;
74267;SDS011;62638;51.362;12.472;2023-03-07T03:47:35;7.45;;;4.35;;
74267;SDS011;62638;51.362;12.472;2023-03-07T03:50:01;6.43;;;4.13;;
74267;SDS011;62638;51.362;12.472;2023-03-07T03:52:27;7.32;;;3.97;;
74267;SDS011;62638;51.362;12.472;2023-03-07T03:54:52;8.63;;;3.95;;
74267;SDS011;62638;51.362;12.472;2023-03-07T03:57:18;8.27;;;2.73;;
74267;SDS011;62638;51.362;12.472;2023-03-07T03:59:44;9.65;;;3.92;;
74267;SDS011;62638;51.362;12.472;2023-03-07T04:02:10;4.68;;;3.03;;
74267;SDS011;62638;51.362;12.472;2023-03-07T04:04:36;6.18;;;2.70;;
74267;SDS011;62638;51.362;12.472;2023-03-07T04:07:01;8.02;;;2.95;;
74267;SDS011;62638;51.362;12.472;2023-03-07T04:09:28;7.13;;;3.95;;
74267;SDS011;62638;51.362;12.472;2023-03-07T04:11:54;14.77;;;5.75;;
74267;SDS011;62638;51.362;12.472;2023-03-07T04:14:19;10.33;;;5.33;;
74267;SDS011;62638;51.362;12.472;2023-03-07T04:16:45;7.38;;;3.90;;
74267;SDS011;62638;51.362;12.472;2023-03-07T04:19:11;7.47;;;3.13;;
74267;SDS011;62638;51.362;12.472;2023-03-07T04:21:37;4.65;;;2.00;;
74267;SDS011;62638;51.362;12.472;2023-03-07T04:24:04;7.88;;;4.38;;
74267;SDS011;62638;51.362;12.472;2023-03-07T04:26:31;11.35;;;4.18;;
74267;SDS011;62638;51.362;12.472;2023-03-07T04:28:56;8.43;;;4.27;;
74267;SDS011;62638;51.362;12.472;2023-03-07T04:31:23;9.02;;;3.50;;
74267;SDS011;62638;51.362;12.472;2023-03-07T04:33:51;10.55;;;3.90;;
74267;SDS011;62638;51.362;12.472;2023-03-07T04:36:18;4.40;;;2.33;;
74267;SDS011;62638;51.362;12.472;2023-03-07T04:38:45;9.20;;;4.43;;
74267;SDS011;62638;51.362;12.472;2023-03-07T04:41:12;5.78;;;2.75;;
74267;SDS011;62638;51.362;12.472;2023-03-07T04:43:39;7.25;;;2.15;;
74267;SDS011;62638;51.362;12.472;2023-03-07T04:46:05;12.32;;;3.33;;
74267;SDS011;62638;51.362;12.472;2023-03-07T04:48:32;6.82;;;3.42;;
74267;SDS011;62638;51.362;12.472;2023-03-07T04:50:58;7.03;;;3.85;;
74267;SDS011;62638;51.362;12.472;2023-03-07T04:53:23;7.20;;;4.15;;
74267;SDS011;62638;51.362;12.472;2023-03-07T04:55:49;9.88;;;4.65;;
74267;SDS011;62638;51.362;12.472;2023-03-07T04:58:14;4.70;;;2.13;;
74267;SDS011;62638;51.362;12.472;2023-03-07T05:00:43;10.90;;;3.43;;
74267;SDS011;62638;51.362;12.472;2023-03-07T05:03:10;7.72;;;2.85;;
74267;SDS011;62638;51.362;12.472;2023-03-07T05:05:37;5.07;;;2.80;;
74267;SDS011;62638;51.362;12.472;2023-03-07T05:08:02;11.60;;;4.63;;
74267;SDS011;62638;51.362;12.472;2023-03-07T05:10:29;6.80;;;3.30;;
74267;SDS011;62638;51.362;12.472;2023-03-07T05:12:55;6.20;;;2.75;;
74267;SDS011;62638;51.362;12.472;2023-03-07T05:15:20;8.20;;;3.70;;
74267;SDS011;62638;51.362;12.472;2023-03-07T05:17:46;6.73;;;3.23;;
74267;SDS011;62638;51.362;12.472;2023-03-07T05:20:11;6.30;;;3.03;;
74267;SDS011;62638;51.362;12.472;2023-03-07T05:22:37;4.78;;;2.30;;
74267;SDS011;62638;51.362;12.472;2023-03-07T05:25:02;9.05;;;3.67;;
74267;SDS011;62638;51.362;12.472;2023-03-07T05:27:27;2.92;;;1.70;;
74267;SDS011;62638;51.362;12.472;2023-03-07T05:29:53;3.83;;;2.83;;
74267;SDS011;62638;51.362;12.472;2023-03-07T05:32:18;6.97;;;3.03;;
74267;SDS011;62638;51.362;12.472;2023-03-07T05:34:44;5.88;;;3.22;;
74267;SDS011;62638;51.362;12.472;2023-03-07T05:37:10;6.80;;;3.17;;
74267;SDS011;62638;51.362;12.472;2023-03-07T05:39:36;8.80;;;3.33;;
74267;SDS011;62638;51.362;12.472;2023-03-07T05:42:01;6.80;;;2.53;;
74267;SDS011;62638;51.362;12.472;2023-03-07T05:44:27;5.72;;;2.88;;
74267;SDS011;62638;51.362;12.472;2023-03-07T05:46:52;4.43;;;2.40;;
74267;SDS011;62638;51.362;12.472;2023-03-07T05:49:17;4.87;;;2.03;;
74267;SDS011;62638;51.362;12.472;2023-03-07T05:51:42;3.67;;;1.95;;
74267;SDS011;62638;51.362;12.472;2023-03-07T05:54:08;7.80;;;3.90;;
74267;SDS011;62638;51.362;12.472;2023-03-07T05:56:33;3.33;;;1.83;;
74267;SDS011;62638;51.362;12.472;2023-03-07T05:58:58;3.08;;;1.85;;
74267;SDS011;62638;51.362;12.472;2023-03-07T06:01:23;3.47;;;2.23;;
74267;SDS011;62638;51.362;12.472;2023-03-07T06:03:49;4.93;;;2.37;;
74267;SDS011;62638;51.362;12.472;2023-03-07T06:06:14;8.87;;;3.73;;
74267;SDS011;62638;51.362;12.472;2023-03-07T06:08:39;4.30;;;2.93;;
74267;SDS011;62638;51.362;12.472;2023-03-07T06:11:04;6.93;;;2.60;;
74267;SDS011;62638;51.362;12.472;2023-03-07T06:13:30;6.53;;;2.63;;
74267;SDS011;62638;51.362;12.472;2023-03-07T06:15:56;5.28;;;2.53;;
74267;SDS011;62638;51.362;12.472;2023-03-07T06:18:22;7.55;;;3.05;;
74267;SDS011;62638;51.362;12.472;2023-03-07T06:21:07;5.97;;;2.63;;
74267;SDS011;62638;51.362;12.472;2023-03-07T06:23:36;6.60;;;2.35;;
74267;SDS011;62638;51.362;12.472;2023-03-07T06:26:02;5.00;;;2.47;;
74267;SDS011;62638;51.362;12.472;2023-03-07T06:28:28;3.67;;;1.60;;
74267;SDS011;62638;51.362;12.472;2023-03-07T06:30:54;7.78;;;3.53;;
74267;SDS011;62638;51.362;12.472;2023-03-07T06:33:19;5.07;;;2.23;;
74267;SDS011;62638;51.362;12.472;2023-03-07T06:35:45;5.35;;;2.30;;
74267;SDS011;62638;51.362;12.472;2023-03-07T06:38:12;4.45;;;1.65;;
74267;SDS011;62638;51.362;12.472;2023-03-07T06:40:39;5.20;;;2.58;;
74267;SDS011;62638;51.362;12.472;2023-03-07T06:43:04;5.85;;;2.67;;
74267;SDS011;62638;51.362;12.472;2023-03-07T06:45:30;3.88;;;2.78;;
74267;SDS011;62638;51.362;12.472;2023-03-07T06:47:55;4.13;;;2.43;;
74267;SDS011;62638;51.362;12.472;2023-03-07T06:50:21;6.35;;;1.75;;
74267;SDS011;62638;51.362;12.472;2023-03-07T06:52:46;4.30;;;1.50;;
74267;SDS011;62638;51.362;12.472;2023-03-07T06:55:14;3.05;;;1.60;;
74267;SDS011;62638;51.362;12.472;2023-03-07T06:57:39;3.78;;;2.28;;
74267;SDS011;62638;51.362;12.472;2023-03-07T07:00:06;9.00;;;2.83;;
74267;SDS011;62638;51.362;12.472;2023-03-07T07:02:32;4.38;;;3.35;;
74267;SDS011;62638;51.362;12.472;2023-03-07T07:04:57;5.22;;;2.38;;
74267;SDS011;62638;51.362;12.472;2023-03-07T07:07:24;4.38;;;2.70;;
74267;SDS011;62638;51.362;12.472;2023-03-07T07:09:49;3.70;;;1.70;;
74267;SDS011;62638;51.362;12.472;2023-03-07T07:12:15;2.50;;;1.17;;
74267;SDS011;62638;51.362;12.472;2023-03-07T07:14:41;2.10;;;1.42;;
74267;SDS011;62638;51.362;12.472;2023-03-07T07:17:06;4.60;;;1.95;;
74267;SDS011;62638;51.362;12.472;2023-03-07T07:19:32;4.18;;;2.08;;
74267;SDS011;62638;51.362;12.472;2023-03-07T07:21:57;5.55;;;2.30;;
74267;SDS011;62638;51.362;12.472;2023-03-07T07:24:23;7.53;;;2.40;;
74267;SDS011;62638;51.362;12.472;2023-03-07T07:26:48;5.97;;;2.37;;
74267;SDS011;62638;51.362;12.472;2023-03-07T07:29:13;4.20;;;2.43;;
74267;SDS011;62638;51.362;12.472;2023-03-07T07:31:39;5.72;;;2.65;;
74267;SDS011;62638;51.362;12.472;2023-03-07T07:34:05;3.47;;;1.83;;
74267;SDS011;62638;51.362;12.472;2023-03-07T07:36:30;6.73;;;2.50;;
74267;SDS011;62638;51.362;12.472;2023-03-07T07:38:56;4.22;;;1.80;;
74267;SDS011;62638;51.362;12.472;2023-03-07T07:41:21;5.53;;;2.50;;
74267;SDS011;62638;51.362;12.472;2023-03-07T07:43:47;2.97;;;1.90;;
74267;SDS011;62638;51.362;12.472;2023-03-07T07:46:14;2.60;;;1.55;;
74267;SDS011;62638;51.362;12.472;2023-03-07T07:48:39;4.95;;;2.13;;
74267;SDS011;62638;51.362;12.472;2023-03-07T07:51:04;3.33;;;2.03;;
74267;SDS011;62638;51.362;12.472;2023-03-07T07:53:30;8.35;;;2.92;;
74267;SDS011;62638;51.362;12.472;2023-03-07T07:55:55;3.85;;;1.92;;
74267;SDS011;62638;51.362;12.472;2023-03-07T07:58:21;5.55;;;2.45;;
74267;SDS011;62638;51.362;12.472;2023-03-07T08:00:46;2.97;;;1.85;;
74267;SDS011;62638;51.362;12.472;2023-03-07T08:03:12;6.33;;;2.90;;
74267;SDS011;62638;51.362;12.472;2023-03-07T08:05:37;7.67;;;2.43;;
74267;SDS011;62638;51.362;12.472;2023-03-07T08:08:07;4.82;;;2.05;;
74267;SDS011;62638;51.362;12.472;2023-03-07T08:10:32;3.73;;;2.17;;
74267;SDS011;62638;51.362;12.472;2023-03-07T08:12:57;6.75;;;2.55;;
74267;SDS011;62638;51.362;12.472;2023-03-07T08:15:22;2.10;;;0.87;;
74267;SDS011;62638;51.362;12.472;2023-03-07T08:17:48;4.82;;;2.67;;
74267;SDS011;62638;51.362;12.472;2023-03-07T08:20:15;2.17;;;1.48;;
74267;SDS011;62638;51.362;12.472;2023-03-07T08:22:41;2.75;;;1.77;;
74267;SDS011;62638;51.362;12.472;2023-03-07T08:25:09;3.55;;;2.13;;
74267;SDS011;62638;51.362;12.472;2023-03-07T08:27:41;3.72;;;1.30;;
74267;SDS011;62638;51.362;12.472;2023-03-07T08:30:07;3.88;;;1.90;;
74267;SDS011;62638;51.362;12.472;2023-03-07T08:32:33;4.05;;;2.05;;
74267;SDS011;62638;51.362;12.472;2023-03-07T08:34:58;4.43;;;2.50;;
74267;SDS011;62638;51.362;12.472;2023-03-07T08:37:23;5.60;;;2.23;;
74267;SDS011;62638;51.362;12.472;2023-03-07T08:39:49;5.73;;;2.80;;
74267;SDS011;62638;51.362;12.472;2023-03-07T08:42:14;3.77;;;2.27;;
74267;SDS011;62638;51.362;12.472;2023-03-07T08:44:39;3.45;;;1.90;;
74267;SDS011;62638;51.362;12.472;2023-03-07T08:47:05;4.13;;;2.23;;
74267;SDS011;62638;51.362;12.472;2023-03-07T08:49:30;4.03;;;1.00;;
74267;SDS011;62638;51.362;12.472;2023-03-07T08:51:55;3.75;;;1.95;;
74267;SDS011;62638;51.362;12.472;2023-03-07T08:54:20;3.67;;;1.73;;
74267;SDS011;62638;51.362;12.472;2023-03-07T08:56:46;4.20;;;1.60;;
74267;SDS011;62638;51.362;12.472;2023-03-07T08:59:17;1.87;;;1.10;;
74267;SDS011;62638;51.362;12.472;2023-03-07T09:01:42;2.15;;;1.42;;
74267;SDS011;62638;51.362;12.472;2023-03-07T09:04:07;4.67;;;1.47;;
74267;SDS011;62638;51.362;12.472;2023-03-07T09:06:39;2.40;;;1.40;;
74267;SDS011;62638;51.362;12.472;2023-03-07T09:09:04;3.90;;;1.83;;
74267;SDS011;62638;51.362;12.472;2023-03-07T09:11:30;2.35;;;1.00;;
74267;SDS011;62638;51.362;12.472;2023-03-07T09:13:55;3.15;;;1.77;;
74267;SDS011;62638;51.362;12.472;2023-03-07T09:16:21;3.88;;;0.98;;
74267;SDS011;62638;51.362;12.472;2023-03-07T09:18:47;6.47;;;2.05;;
74267;SDS011;62638;51.362;12.472;2023-03-07T09:21:12;3.75;;;1.80;;
74267;SDS011;62638;51.362;12.472;2023-03-07T09:23:38;2.85;;;1.75;;
74267;SDS011;62638;51.362;12.472;2023-03-07T09:26:03;1.80;;;1.23;;
74267;SDS011;62638;51.362;12.472;2023-03-07T09:28:30;2.45;;;1.88;;
74267;SDS011;62638;51.362;12.472;2023-03-07T09:30:56;2.05;;;1.40;;
74267;SDS011;62638;51.362;12.472;2023-03-07T09:33:21;3.67;;;2.15;;
74267;SDS011;62638;51.362;12.472;2023-03-07T09:35:46;3.28;;;2.20;;
74267;SDS011;62638;51.362;12.472;2023-03-07T09:38:12;4.43;;;2.50;;
74267;SDS011;62638;51.362;12.472;2023-03-07T09:40:37;3.55;;;1.75;;
74267;SDS011;62638;51.362;12.472;2023-03-07T09:45:45;5.68;;;3.05;;
74267;SDS011;62638;51.362;12.472;2023-03-07T09:50:53;3.88;;;2.40;;
74267;SDS011;62638;51.362;12.472;2023-03-07T09:53:26;4.72;;;1.77;;
74267;SDS011;62638;51.362;12.472;2023-03-07T09:56:00;4.07;;;2.42;;
74267;SDS011;62638;51.362;12.472;2023-03-07T09:58:29;4.80;;;2.30;;
74267;SDS011;62638;51.362;12.472;2023-03-07T10:00:55;4.53;;;2.90;;
74267;SDS011;62638;51.362;12.472;2023-03-07T10:03:31;3.03;;;2.38;;
74267;SDS011;62638;51.362;12.472;2023-03-07T10:06:21;4.85;;;2.20;;
74267;SDS011;62638;51.362;12.472;2023-03-07T10:08:51;5.57;;;2.63;;
74267;SDS011;62638;51.362;12.472;2023-03-07T10:16:54;5.22;;;2.90;;
74267;SDS011;62638;51.362;12.472;2023-03-07T10:19:43;7.40;;;2.85;;
74267;SDS011;62638;51.362;12.472;2023-03-07T10:27:32;2.78;;;1.42;;
74267;SDS011;62638;51.362;12.472;2023-03-07T10:29:58;2.95;;;1.50;;
74267;SDS011;62638;51.362;12.472;2023-03-07T10:37:47;4.53;;;2.83;;
74267;SDS011;62638;51.362;12.472;2023-03-07T10:40:20;2.30;;;1.63;;
74267;SDS011;62638;51.362;12.472;2023-03-07T10:42:55;3.42;;;2.20;;
74267;SDS011;62638;51.362;12.472;2023-03-07T10:45:22;4.65;;;1.88;;
74267;SDS011;62638;51.362;12.472;2023-03-07T10:47:47;4.00;;;2.25;;
74267;SDS011;62638;51.362;12.472;2023-03-07T10:52:57;6.28;;;3.15;;
74267;SDS011;62638;51.362;12.472;2023-03-07T10:55:29;1.88;;;1.10;;
74267;SDS011;62638;51.362;12.472;2023-03-07T10:58:23;5.97;;;2.20;;
74267;SDS011;62638;51.362;12.472;2023-03-07T11:06:04;3.45;;;1.92;;
74267;SDS011;62638;51.362;12.472;2023-03-07T11:08:49;5.13;;;2.83;;
74267;SDS011;62638;51.362;12.472;2023-03-07T11:11:21;3.38;;;2.13;;
74267;SDS011;62638;51.362;12.472;2023-03-07T11:14:05;5.28;;;1.92;;
74267;SDS011;62638;51.362;12.472;2023-03-07T11:16:39;4.72;;;2.35;;
74267;SDS011;62638;51.362;12.472;2023-03-07T11:19:27;6.50;;;2.28;;
74267;SDS011;62638;51.362;12.472;2023-03-07T11:21:53;6.28;;;3.35;;
74267;SDS011;62638;51.362;12.472;2023-03-07T11:24:27;3.38;;;1.95;;
74267;SDS011;62638;51.362;12.472;2023-03-07T11:26:57;3.55;;;2.00;;
74267;SDS011;62638;51.362;12.472;2023-03-07T11:29:24;3.75;;;2.28;;
74267;SDS011;62638;51.362;12.472;2023-03-07T11:34:40;2.28;;;1.70;;
74267;SDS011;62638;51.362;12.472;2023-03-07T11:42:30;3.50;;;1.92;;
74267;SDS011;62638;51.362;12.472;2023-03-07T11:50:22;4.10;;;2.53;;
74267;SDS011;62638;51.362;12.472;2023-03-07T11:58:03;4.67;;;2.40;;
74267;SDS011;62638;51.362;12.472;2023-03-07T12:14:31;6.85;;;2.47;;
74267;SDS011;62638;51.362;12.472;2023-03-07T12:17:26;2.83;;;1.42;;
74267;SDS011;62638;51.362;12.472;2023-03-07T12:22:22;4.50;;;2.10;;
74267;SDS011;62638;51.362;12.472;2023-03-07T12:24:59;3.70;;;2.10;;
74267;SDS011;62638;51.362;12.472;2023-03-07T12:27:34;4.38;;;2.45;;
74267;SDS011;62638;51.362;12.472;2023-03-07T12:30:12;4.03;;;2.42;;
74267;SDS011;62638;51.362;12.472;2023-03-07T12:32:42;3.92;;;1.42;;
74267;SDS011;62638;51.362;12.472;2023-03-07T12:35:43;5.78;;;2.63;;
74267;SDS011;62638;51.362;12.472;2023-03-07T12:40:47;3.00;;;2.28;;
74267;SDS011;62638;51.362;12.472;2023-03-07T12:43:24;3.70;;;1.75;;
74267;SDS011;62638;51.362;12.472;2023-03-07T12:48:36;2.72;;;2.20;;
74267;SDS011;62638;51.362;12.472;2023-03-07T12:51:12;4.38;;;2.20;;
74267;SDS011;62638;51.362;12.472;2023-03-07T12:54:26;4.53;;;2.63;;
74267;SDS011;62638;51.362;12.472;2023-03-07T12:59:41;6.47;;;3.30;;
74267;SDS011;62638;51.362;12.472;2023-03-07T13:02:12;3.65;;;2.42;;
74267;SDS011;62638;51.362;12.472;2023-03-07T13:04:43;5.05;;;2.53;;
74267;SDS011;62638;51.362;12.472;2023-03-07T13:07:16;6.13;;;2.87;;
74267;SDS011;62638;51.362;12.472;2023-03-07T13:09:46;4.75;;;2.95;;
74267;SDS011;62638;51.362;12.472;2023-03-07T13:14:50;7.07;;;3.63;;
74267;SDS011;62638;51.362;12.472;2023-03-07T13:25:35;5.60;;;3.30;;
74267;SDS011;62638;51.362;12.472;2023-03-07T13:27:52;8.25;;;2.97;;
74267;SDS011;62638;51.362;12.472;2023-03-07T13:30:18;4.13;;;2.20;;
74267;SDS011;62638;51.362;12.472;2023-03-07T13:33:01;4.82;;;2.20;;
74267;SDS011;62638;51.362;12.472;2023-03-07T13:40:56;5.03;;;2.25;;
74267;SDS011;62638;51.362;12.472;2023-03-07T13:45:58;3.70;;;1.77;;
74267;SDS011;62638;51.362;12.472;2023-03-07T13:58:45;5.93;;;3.20;;
74267;SDS011;62638;51.362;12.472;2023-03-07T14:07:11;3.83;;;2.03;;
74267;SDS011;62638;51.362;12.472;2023-03-07T14:09:50;4.32;;;2.00;;
74267;SDS011;62638;51.362;12.472;2023-03-07T14:12:32;9.30;;;2.00;;
74267;SDS011;62638;51.362;12.472;2023-03-07T14:15:42;4.38;;;2.28;;
74267;SDS011;62638;51.362;12.472;2023-03-07T14:18:39;6.45;;;2.47;;
74267;SDS011;62638;51.362;12.472;2023-03-07T14:24:06;4.63;;;2.88;;
74267;SDS011;62638;51.362;12.472;2023-03-07T14:26:54;2.08;;;1.50;;
74267;SDS011;62638;51.362;12.472;2023-03-07T14:29:25;5.03;;;1.98;;
74267;SDS011;62638;51.362;12.472;2023-03-07T14:31:54;3.00;;;0.95;;
74267;SDS011;62638;51.362;12.472;2023-03-07T14:36:51;3.37;;;1.23;;
74267;SDS011;62638;51.362;12.472;2023-03-07T14:39:19;2.15;;;1.20;;
74267;SDS011;62638;51.362;12.472;2023-03-07T14:42:03;2.60;;;1.20;;
74267;SDS011;62638;51.362;12.472;2023-03-07T14:50:35;1.63;;;0.88;;
74267;SDS011;62638;51.362;12.472;2023-03-07T14:55:38;6.85;;;1.55;;
74267;SDS011;62638;51.362;12.472;2023-03-07T14:58:06;2.80;;;0.50;;
74267;SDS011;62638;51.362;12.472;2023-03-07T15:00:39;1.65;;;0.63;;
74267;SDS011;62638;51.362;12.472;2023-03-07T15:03:05;2.47;;;1.40;;
74267;SDS011;62638;51.362;12.472;2023-03-07T15:05:33;7.57;;;1.40;;
74267;SDS011;62638;51.362;12.472;2023-03-07T15:08:23;1.27;;;0.80;;
74267;SDS011;62638;51.362;12.472;2023-03-07T15:13:42;2.88;;;1.30;;
74267;SDS011;62638;51.362;12.472;2023-03-07T15:16:14;1.05;;;0.70;;
74267;SDS011;62638;51.362;12.472;2023-03-07T15:18:48;3.95;;;1.50;;
74267;SDS011;62638;51.362;12.472;2023-03-07T15:21:19;3.15;;;0.90;;
74267;SDS011;62638;51.362;12.472;2023-03-07T15:23:52;3.28;;;1.83;;
74267;SDS011;62638;51.362;12.472;2023-03-07T15:26:19;1.67;;;1.05;;
74267;SDS011;62638;51.362;12.472;2023-03-07T15:28:47;3.45;;;0.95;;
74267;SDS011;62638;51.362;12.472;2023-03-07T15:31:13;6.63;;;1.83;;
74267;SDS011;62638;51.362;12.472;2023-03-07T15:33:39;2.88;;;0.98;;
74267;SDS011;62638;51.362;12.472;2023-03-07T15:38:37;1.23;;;0.80;;
74267;SDS011;62638;51.362;12.472;2023-03-07T15:41:23;1.23;;;0.70;;
74267;SDS011;62638;51.362;12.472;2023-03-07T15:44:03;1.48;;;0.52;;
74267;SDS011;62638;51.362;12.472;2023-03-07T15:49:02;4.88;;;1.88;;
74267;SDS011;62638;51.362;12.472;2023-03-07T15:51:33;1.95;;;1.20;;
74267;SDS011;62638;51.362;12.472;2023-03-07T15:54:15;2.08;;;0.80;;
74267;SDS011;62638;51.362;12.472;2023-03-07T15:56:51;4.05;;;1.25;;
74267;SDS011;62638;51.362;12.472;2023-03-07T16:01:52;2.70;;;1.02;;
74267;SDS011;62638;51.362;12.472;2023-03-07T16:04:24;3.20;;;1.27;;
74267;SDS011;62638;51.362;12.472;2023-03-07T16:07:02;1.05;;;0.93;;
74267;SDS011;62638;51.362;12.472;2023-03-07T16:09:28;0.98;;;0.68;;
74267;SDS011;62638;51.362;12.472;2023-03-07T16:11:53;1.17;;;0.63;;
74267;SDS011;62638;51.362;12.472;2023-03-07T16:14:20;2.88;;;0.88;;
74267;SDS011;62638;51.362;12.472;2023-03-07T16:16:49;1.60;;;0.70;;
74267;SDS011;62638;51.362;12.472;2023-03-07T16:19:15;1.45;;;0.70;;
74267;SDS011;62638;51.362;12.472;2023-03-07T16:21:40;1.97;;;1.00;;
74267;SDS011;62638;51.362;12.472;2023-03-07T16:24:05;3.50;;;1.00;;
74267;SDS011;62638;51.362;12.472;2023-03-07T16:26:31;1.67;;;0.77;;
74267;SDS011;62638;51.362;12.472;2023-03-07T16:28:57;1.90;;;0.73;;
74267;SDS011;62638;51.362;12.472;2023-03-07T16:31:24;1.48;;;0.68;;
74267;SDS011;62638;51.362;12.472;2023-03-07T16:33:51;2.92;;;1.70;;
74267;SDS011;62638;51.362;12.472;2023-03-07T16:36:18;1.00;;;0.52;;
74267;SDS011;62638;51.362;12.472;2023-03-07T16:38:52;0.90;;;0.57;;
74267;SDS011;62638;51.362;12.472;2023-03-07T16:41:20;4.13;;;1.20;;
74267;SDS011;62638;51.362;12.472;2023-03-07T16:43:51;2.28;;;1.08;;
74267;SDS011;62638;51.362;12.472;2023-03-07T16:46:18;1.98;;;1.15;;
74267;SDS011;62638;51.362;12.472;2023-03-07T16:48:44;1.88;;;1.00;;
74267;SDS011;62638;51.362;12.472;2023-03-07T16:51:17;2.03;;;0.90;;
74267;SDS011;62638;51.362;12.472;2023-03-07T16:53:45;3.33;;;1.60;;
74267;SDS011;62638;51.362;12.472;2023-03-07T16:56:17;0.77;;;0.77;;